Time;durP1;ratioP1;P1;durP2;ratioP2;P2;SDS_P1;SDS_P2;PMS_P1;PMS_P2;Temp;Humidity;BMP_temperature;BMP_pressure;BME280_temperature;BME280_humidity;BME280_pressure;Samples;Min_cycle;Max_cycle;Signal;HPM_P1;HPM_P2
2023/08/27 00:02:03;;;;;;;5.53;5.03;;;;;;;18.36;100.00;97659.53;4158675;28;21029;-90
2023/08/27 00:04:09;;;;;;;7.37;5.00;;;;;;;18.37;100.00;97669.09;4172200;28;20662;-90
2023/08/27 00:06:13;;;;;;;5.73;5.13;;;;;;;18.37;100.00;97666.44;4151922;28;20622;-91
2023/08/27 00:08:16;;;;;;;5.63;5.00;;;;;;;18.38;100.00;97662.84;4166257;28;21260;-90
2023/08/27 00:10:19;;;;;;;5.40;4.90;;;;;;;18.38;100.00;97667.31;4167580;28;21180;-90
2023/08/27 00:12:21;;;;;;;6.50;5.10;;;;;;;18.37;100.00;97660.34;4153312;28;21272;-90
2023/08/27 00:14:25;;;;;;;8.70;5.60;;;;;;;18.38;100.00;97646.97;4185966;28;20624;-90
2023/08/27 00:16:28;;;;;;;5.77;5.17;;;;;;;18.41;100.00;97630.00;4163555;28;20661;-89
2023/08/27 00:18:31;;;;;;;6.40;5.40;;;;;;;18.41;100.00;97635.28;4162115;28;20656;-90
2023/08/27 00:20:35;;;;;;;7.60;4.90;;;;;;;18.41;100.00;97624.72;4163146;28;20672;-90
2023/08/27 00:22:38;;;;;;;6.20;5.30;;;;;;;18.38;100.00;97604.72;4171136;28;21243;-90
2023/08/27 00:24:42;;;;;;;6.43;4.83;;;;;;;18.40;100.00;97607.22;4170344;28;20691;-90
2023/08/27 00:26:45;;;;;;;5.97;5.37;;;;;;;18.35;100.00;97609.53;4165740;28;20657;-90
2023/08/27 00:28:48;;;;;;;6.00;5.40;;;;;;;18.35;100.00;97598.97;4160413;28;20632;-90
2023/08/27 00:30:51;;;;;;;5.70;5.10;;;;;;;18.33;100.00;97574.50;4161734;28;20644;-90
2023/08/27 00:32:55;;;;;;;5.60;4.27;;;;;;;18.30;100.00;97564.31;4155671;28;20696;-90
2023/08/27 00:34:59;;;;;;;4.80;4.07;;;;;;;18.29;100.00;97581.13;4175050;28;21231;-90
2023/08/27 00:37:03;;;;;;;4.20;3.67;;;;;;;18.28;100.00;97582.09;4154711;28;20639;-90
2023/08/27 00:39:06;;;;;;;4.87;4.00;;;;;;;18.28;100.00;97603.22;4162475;28;20987;-91
2023/08/27 00:41:10;;;;;;;5.17;3.30;;;;;;;18.32;100.00;97609.84;4168389;28;20630;-90
2023/08/27 00:43:13;;;;;;;7.30;3.57;;;;;;;18.33;100.00;97628.19;4155210;28;20645;-91
2023/08/27 00:45:16;;;;;;;4.20;3.77;;;;;;;18.35;100.00;97633.28;4169306;28;20633;-90
2023/08/27 00:47:19;;;;;;;8.17;4.60;;;;;;;18.35;100.00;97636.75;4163441;28;20646;-87
2023/08/27 00:49:24;;;;;;;7.17;5.50;;;;;;;18.36;100.00;97632.28;4168423;28;20635;-87
2023/08/27 00:51:27;;;;;;;9.23;4.77;;;;;;;18.34;100.00;97627.16;4172793;28;20672;-86
2023/08/27 00:53:32;;;;;;;5.13;4.17;;;;;;;18.31;100.00;97624.88;4166627;28;20667;-86
2023/08/27 00:55:35;;;;;;;4.97;4.50;;;;;;;18.29;100.00;97631.31;4151692;28;20729;-86
2023/08/27 00:57:40;;;;;;;4.70;4.30;;;;;;;18.27;100.00;97639.38;4152252;28;21111;-86
2023/08/27 00:59:43;;;;;;;5.33;3.97;;;;;;;18.28;100.00;97642.84;4157488;28;20638;-86
2023/08/27 01:01:46;;;;;;;5.07;4.50;;;;;;;18.31;100.00;97653.09;4156170;28;20685;-86
2023/08/27 01:03:50;;;;;;;5.03;4.40;;;;;;;18.32;100.00;97645.00;4157789;28;21451;-86
2023/08/27 01:05:54;;;;;;;5.60;4.70;;;;;;;18.34;100.00;97639.56;4162782;28;20630;-86
2023/08/27 01:08:00;;;;;;;5.13;4.63;;;;;;;18.33;100.00;97648.44;4161429;28;20665;-87
2023/08/27 01:10:09;;;;;;;5.67;4.37;;;;;;;18.35;100.00;97651.78;4161325;28;20688;-86
2023/08/27 01:12:15;;;;;;;5.73;5.10;;;;;;;18.36;100.00;97653.41;4163032;28;20988;-86
2023/08/27 01:14:21;;;;;;;5.50;4.77;;;;;;;18.36;100.00;97653.41;4155047;28;20627;-87
2023/08/27 01:16:23;;;;;;;8.30;5.70;;;;;;;18.36;100.00;97653.41;4170127;28;20626;-87
2023/08/27 01:18:27;;;;;;;5.90;5.27;;;;;;;18.37;100.00;97657.72;4167321;28;20683;-87
2023/08/27 01:20:31;;;;;;;5.67;4.67;;;;;;;18.39;100.00;97663.66;4159963;28;20631;-87
2023/08/27 01:22:36;;;;;;;5.20;4.70;;;;;;;18.39;100.00;97667.13;4162136;28;20726;-86
2023/08/27 01:24:39;;;;;;;6.63;5.33;;;;;;;18.40;100.00;97665.31;4177820;28;20627;-87
2023/08/27 01:26:46;;;;;;;6.40;5.00;;;;;;;18.40;100.00;97655.56;4165170;28;20638;-86
2023/08/27 01:28:53;;;;;;;6.37;5.73;;;;;;;18.42;100.00;97651.78;4176777;28;20721;-86
2023/08/27 01:31:01;;;;;;;6.13;4.60;;;;;;;18.42;100.00;97643.03;4174955;28;20622;-86
2023/08/27 01:33:09;;;;;;;5.83;5.23;;;;;;;18.42;100.00;97641.22;4178696;28;20645;-86
2023/08/27 01:35:13;;;;;;;6.07;5.40;;;;;;;18.41;100.00;97636.09;4155755;28;21280;-87
2023/08/27 01:37:17;;;;;;;8.20;4.80;;;;;;;18.42;100.00;97643.84;4161166;28;20635;-86
2023/08/27 01:39:22;;;;;;;5.40;4.83;;;;;;;18.43;100.00;97647.31;4174867;28;21252;-86
2023/08/27 01:41:25;;;;;;;5.20;4.70;;;;;;;18.41;100.00;97636.91;4157629;28;20726;-86
2023/08/27 01:43:29;;;;;;;6.63;5.10;;;;;;;18.42;100.00;97637.75;4157316;28;20752;-86
2023/08/27 01:45:32;;;;;;;5.27;4.70;;;;;;;18.41;100.00;97641.38;4170658;28;21007;-86
2023/08/27 01:47:37;;;;;;;5.03;4.53;;;;;;;18.41;100.00;97647.47;4163473;28;21164;-86
2023/08/27 01:49:40;;;;;;;6.80;4.87;;;;;;;18.42;100.00;97643.03;4157510;28;20958;-86
2023/08/27 01:51:43;;;;;;;5.33;4.50;;;;;;;18.42;100.00;97638.56;4161067;28;20634;-86
2023/08/27 01:53:45;;;;;;;5.17;4.00;;;;;;;18.41;100.00;97636.09;4161545;28;20631;-86
2023/08/27 01:55:49;;;;;;;4.40;4.00;;;;;;;18.40;100.00;97634.44;4173390;28;20663;-87
2023/08/27 01:57:53;;;;;;;4.93;4.17;;;;;;;18.41;100.00;97634.28;4154221;28;21113;-89
2023/08/27 01:59:57;;;;;;;4.97;4.37;;;;;;;18.41;100.00;97634.28;4161403;28;20623;-90
2023/08/27 02:02:01;;;;;;;4.93;4.43;;;;;;;18.42;100.00;97620.09;4167278;28;20729;-90
2023/08/27 02:04:03;;;;;;;5.33;4.23;;;;;;;18.43;100.00;97613.81;4162575;28;20678;-91
2023/08/27 02:06:07;;;;;;;5.57;3.90;;;;;;;18.43;100.00;97615.63;4158698;28;20647;-91
2023/08/27 02:08:09;;;;;;;4.80;4.40;;;;;;;18.46;100.00;97615.28;4159278;28;20660;-92
2023/08/27 02:10:12;;;;;;;4.90;4.13;;;;;;;18.49;100.00;97607.03;4173240;28;20622;-90
2023/08/27 02:12:17;;;;;;;5.30;4.73;;;;;;;18.49;100.00;97599.97;4156568;28;21218;-90
2023/08/27 02:14:19;;;;;;;5.90;4.40;;;;;;;18.50;100.00;97598.94;4158304;28;21008;-90
2023/08/27 02:16:23;;;;;;;4.90;4.40;;;;;;;18.51;100.00;97594.50;4154612;28;20631;-90
2023/08/27 02:18:26;;;;;;;4.80;4.30;;;;;;;18.50;100.00;97598.94;4164517;28;21001;-90
2023/08/27 02:20:29;;;;;;;4.60;4.20;;;;;;;18.45;100.00;97590.69;4157966;28;20684;-91
2023/08/27 02:22:32;;;;;;;6.07;5.00;;;;;;;18.41;100.00;97594.66;4151840;28;20624;-91
2023/08/27 02:24:36;;;;;;;6.37;5.13;;;;;;;18.41;100.00;97603.59;4174050;28;21197;-91
2023/08/27 02:26:39;;;;;;;5.63;4.67;;;;;;;18.44;100.00;97614.63;4173656;28;20643;-90
2023/08/27 02:28:44;;;;;;;5.90;5.30;;;;;;;18.46;100.00;97618.78;4158224;28;20671;-90
2023/08/27 02:30:51;;;;;;;5.13;4.63;;;;;;;18.49;100.00;97610.53;4162691;28;20633;-91
2023/08/27 02:32:55;;;;;;;5.93;5.20;;;;;;;18.49;100.00;97613.16;4157395;28;20646;-90
2023/08/27 02:34:59;;;;;;;7.70;4.50;;;;;;;18.52;100.00;97612.00;4160694;28;20646;-90
2023/08/27 02:37:02;;;;;;;8.83;5.03;;;;;;;18.52;100.00;97622.56;4154842;28;21276;-90
2023/08/27 02:39:05;;;;;;;5.47;4.97;;;;;;;18.53;100.00;97635.59;4170944;28;20732;-90
2023/08/27 02:41:08;;;;;;;4.80;4.30;;;;;;;18.52;100.00;97628.69;4153037;28;20635;-91
2023/08/27 02:43:11;;;;;;;4.60;4.20;;;;;;;18.54;100.00;97634.63;4171847;28;21237;-90
2023/08/27 02:45:16;;;;;;;6.30;3.93;;;;;;;18.54;100.00;97633.81;4161736;28;20630;-90
2023/08/27 02:47:20;;;;;;;6.07;4.50;;;;;;;18.54;100.00;97637.25;4173677;28;20628;-90
2023/08/27 02:49:23;;;;;;;4.63;4.23;;;;;;;18.54;100.00;97631.97;4165501;28;20767;-90
2023/08/27 02:51:25;;;;;;;4.97;4.50;;;;;;;18.53;100.00;97634.78;4172695;28;20701;-90
2023/08/27 02:53:28;;;;;;;4.90;4.40;;;;;;;18.54;100.00;97631.16;4158060;28;20632;-91
2023/08/27 02:55:32;;;;;;;4.67;4.27;;;;;;;18.54;100.00;97628.53;4168802;28;20626;-90
2023/08/27 02:57:36;;;;;;;4.40;4.00;;;;;;;18.54;100.00;97631.97;4151448;28;20725;-91
2023/08/27 02:59:39;;;;;;;4.80;4.30;;;;;;;18.55;100.00;97623.06;4166070;28;20641;-90
2023/08/27 03:01:44;;;;;;;4.43;4.00;;;;;;;18.56;100.00;97610.69;4168237;28;20652;-91
2023/08/27 03:03:47;;;;;;;4.63;4.20;;;;;;;18.58;100.00;97609.53;4176591;28;20646;-89
2023/08/27 03:05:52;;;;;;;5.40;4.43;;;;;;;18.58;100.00;97611.34;4155604;28;20754;-90
2023/08/27 03:07:56;;;;;;;5.87;4.43;;;;;;;18.56;100.00;97611.50;4160933;28;20627;-87
2023/08/27 03:09:59;;;;;;;5.37;4.47;;;;;;;18.54;100.00;97610.84;4154840;28;20667;-87
2023/08/27 03:12:02;;;;;;;4.97;4.47;;;;;;;18.56;100.00;97621.25;4153990;28;20642;-86
2023/08/27 03:14:06;;;;;;;5.43;4.93;;;;;;;18.57;100.00;97620.28;4148269;28;20640;-86
2023/08/27 03:16:09;;;;;;;4.50;4.07;;;;;;;18.59;100.00;97618.28;4166533;28;20679;-86
2023/08/27 03:18:14;;;;;;;3.93;3.63;;;;;;;18.60;100.00;97633.16;4157737;28;20960;-86
2023/08/27 03:20:17;;;;;;;5.10;4.20;;;;;;;18.61;100.00;97621.56;4165773;28;20633;-86
2023/08/27 03:22:21;;;;;;;5.50;4.20;;;;;;;18.62;100.00;97602.91;4167913;28;20636;-87
2023/08/27 03:24:24;;;;;;;4.73;4.23;;;;;;;18.59;100.00;97597.97;4177317;28;20630;-86
2023/08/27 03:26:27;;;;;;;4.93;4.27;;;;;;;18.60;100.00;97596.97;4176371;28;20677;-86
2023/08/27 03:28:30;;;;;;;4.80;4.40;;;;;;;18.61;100.00;97600.44;4161049;28;20635;-86
2023/08/27 03:30:34;;;;;;;4.13;3.63;;;;;;;18.60;100.00;97578.47;4159343;28;20665;-86
2023/08/27 03:32:36;;;;;;;4.70;3.77;;;;;;;18.56;100.00;97577.16;4173599;28;21124;-86
2023/08/27 03:34:41;;;;;;;5.20;4.70;;;;;;;18.52;100.00;97575.00;4158984;28;20634;-86
2023/08/27 03:36:44;;;;;;;5.33;4.57;;;;;;;18.51;100.00;97578.66;4159353;28;20635;-86
2023/08/27 03:38:47;;;;;;;4.80;4.40;;;;;;;18.51;100.00;97573.38;4172274;28;20647;-86
2023/08/27 03:40:52;;;;;;;9.23;4.90;;;;;;;18.51;100.00;97563.63;4158821;28;20629;-86
2023/08/27 03:42:55;;;;;;;7.03;5.13;;;;;;;18.50;100.00;97564.59;4164691;28;20636;-86
2023/08/27 03:45:00;;;;;;;5.10;4.37;;;;;;;18.51;100.00;97579.47;4172632;28;20726;-86
2023/08/27 03:47:04;;;;;;;6.20;5.00;;;;;;;18.51;100.00;97574.19;4156479;28;21232;-86
2023/08/27 03:49:07;;;;;;;5.30;4.73;;;;;;;18.54;100.00;97580.97;4156123;28;20654;-86
2023/08/27 03:51:12;;;;;;;5.20;4.70;;;;;;;18.52;100.00;97562.66;4164253;28;20644;-86
2023/08/27 03:53:15;;;;;;;5.53;5.03;;;;;;;18.51;100.00;97563.63;4171698;28;20647;-87
2023/08/27 03:55:19;;;;;;;5.47;4.87;;;;;;;18.48;100.00;97557.88;4180086;28;20727;-86
2023/08/27 03:57:22;;;;;;;5.73;4.33;;;;;;;18.41;100.00;97565.59;4180562;28;20997;-86
2023/08/27 03:59:25;;;;;;;6.50;5.03;;;;;;;18.41;100.00;97573.53;4180482;28;21274;-86
2023/08/27 04:01:28;;;;;;;6.00;5.27;;;;;;;18.40;100.00;97568.41;4157242;28;20635;-86
2023/08/27 04:03:32;;;;;;;5.57;5.07;;;;;;;18.41;100.00;97572.72;4156994;28;20646;-86
2023/08/27 04:05:36;;;;;;;5.63;5.13;;;;;;;18.41;100.00;97571.91;4173032;28;20668;-86
2023/08/27 04:07:41;;;;;;;7.93;5.00;;;;;;;18.41;100.00;97574.53;4179480;28;20621;-86
2023/08/27 04:09:44;;;;;;;5.33;4.83;;;;;;;18.42;100.00;97579.66;4163665;28;20654;-86
2023/08/27 04:11:47;;;;;;;6.93;4.67;;;;;;;18.42;100.00;97582.28;4171552;28;21010;-86
2023/08/27 04:13:50;;;;;;;5.63;4.83;;;;;;;18.44;100.00;97586.41;4163946;28;21084;-86
2023/08/27 04:16:00;;;;;;;6.00;5.20;;;;;;;18.46;100.00;97580.94;4164139;28;20718;-86
2023/08/27 04:18:05;;;;;;;5.23;4.63;;;;;;;18.46;100.00;97575.66;4163395;28;21372;-86
2023/08/27 04:20:08;;;;;;;5.10;4.60;;;;;;;18.42;100.00;97561.16;4177551;28;20633;-86
2023/08/27 04:22:12;;;;;;;8.43;5.27;;;;;;;18.41;100.00;97550.75;4179281;28;20707;-86
2023/08/27 04:24:16;;;;;;;5.40;4.80;;;;;;;18.41;100.00;97551.56;4160751;28;20730;-86
2023/08/27 04:26:19;;;;;;;5.37;4.80;;;;;;;18.45;100.00;97547.63;4153414;28;20662;-86
2023/08/27 04:28:23;;;;;;;5.80;5.20;;;;;;;18.44;100.00;97546.78;4155303;28;21284;-86
2023/08/27 04:30:28;;;;;;;5.03;4.53;;;;;;;18.45;100.00;97559.00;4169326;28;20667;-86
2023/08/27 04:32:30;;;;;;;5.57;4.73;;;;;;;18.46;100.00;97554.53;4173568;28;20639;-86
2023/08/27 04:34:33;;;;;;;5.20;4.70;;;;;;;18.47;100.00;97566.75;4159014;28;20657;-86
2023/08/27 04:36:36;;;;;;;7.33;4.90;;;;;;;18.47;100.00;97578.16;4168980;28;20630;-86
2023/08/27 04:38:39;;;;;;;5.40;4.70;;;;;;;18.47;100.00;97583.44;4149306;28;20633;-86
2023/08/27 04:40:44;;;;;;;5.37;4.87;;;;;;;18.49;100.00;97583.25;4170485;28;21256;-86
2023/08/27 04:42:47;;;;;;;5.70;4.60;;;;;;;18.48;100.00;97581.63;4171997;28;20677;-87
2023/08/27 04:44:50;;;;;;;5.57;5.07;;;;;;;18.48;100.00;97590.38;4158242;28;20628;-86
2023/08/27 04:46:54;;;;;;;5.60;4.50;;;;;;;18.48;100.00;97574.53;4171704;28;20694;-87
2023/08/27 04:49:00;;;;;;;5.50;4.63;;;;;;;18.47;100.00;97559.66;4160070;28;20635;-86
2023/08/27 04:51:04;;;;;;;6.40;5.00;;;;;;;18.46;100.00;97554.53;4151466;28;21009;-87
2023/08/27 04:53:06;;;;;;;4.80;4.40;;;;;;;18.47;100.00;97521.84;4157487;28;20669;-86
2023/08/27 04:55:09;;;;;;;6.37;4.63;;;;;;;18.45;100.00;97508.00;4162854;28;20634;-86
2023/08/27 04:57:14;;;;;;;5.20;4.50;;;;;;;18.41;100.00;97482.09;4157570;28;20633;-86
2023/08/27 04:59:16;;;;;;;7.17;4.57;;;;;;;18.38;100.00;97480.59;4172293;28;20646;-87
2023/08/27 05:01:19;;;;;;;5.77;5.17;;;;;;;18.38;100.00;97477.97;4154583;28;21311;-86
2023/08/27 05:03:23;;;;;;;5.70;5.10;;;;;;;18.39;100.00;97494.63;4162632;28;21115;-87
2023/08/27 05:05:26;;;;;;;7.23;5.43;;;;;;;18.42;100.00;97503.06;4167853;28;20650;-87
2023/08/27 05:07:29;;;;;;;5.10;4.47;;;;;;;18.43;100.00;97512.63;4163315;28;20657;-86
2023/08/27 05:09:32;;;;;;;7.23;5.20;;;;;;;18.44;100.00;97538.84;4170659;28;21074;-86
2023/08/27 05:11:36;;;;;;;5.10;4.60;;;;;;;18.48;100.00;97542.00;4154474;28;21106;-86
2023/08/27 05:13:40;;;;;;;5.27;4.77;;;;;;;18.48;100.00;97545.47;4172290;28;20727;-86
2023/08/27 05:15:43;;;;;;;5.20;4.70;;;;;;;18.48;100.00;97539.38;4170347;28;21559;-86
2023/08/27 05:17:47;;;;;;;4.70;4.30;;;;;;;18.49;100.00;97536.56;4169228;28;20619;-86
2023/08/27 05:19:51;;;;;;;4.60;4.20;;;;;;;18.49;100.00;97541.00;4178219;28;21205;-86
2023/08/27 05:21:54;;;;;;;4.57;4.03;;;;;;;18.51;100.00;97542.50;4158736;28;20731;-86
2023/08/27 05:23:57;;;;;;;9.33;4.57;;;;;;;18.50;100.00;97550.59;4160026;28;20631;-86
2023/08/27 05:26:01;;;;;;;6.10;5.50;;;;;;;18.52;100.00;97560.00;4163205;28;20643;-86
2023/08/27 05:28:04;;;;;;;4.57;4.17;;;;;;;18.53;100.00;97572.19;4172832;28;20617;-86
2023/08/27 05:30:09;;;;;;;5.23;4.23;;;;;;;18.53;100.00;97564.28;4155875;28;20655;-86
2023/08/27 05:32:12;;;;;;;4.50;4.10;;;;;;;18.54;100.00;97565.13;4162030;28;20740;-86
2023/08/27 05:34:17;;;;;;;4.77;4.33;;;;;;;18.56;100.00;97568.41;4182176;28;20612;-86
2023/08/27 05:36:21;;;;;;;5.13;4.23;;;;;;;18.58;100.00;97569.91;4166479;28;21293;-86
2023/08/27 05:38:25;;;;;;;5.80;4.23;;;;;;;18.59;100.00;97568.09;4153337;28;20734;-87
2023/08/27 05:40:28;;;;;;;4.87;4.37;;;;;;;18.61;100.00;97574.00;4186366;28;20647;-86
2023/08/27 05:42:31;;;;;;;4.97;4.47;;;;;;;18.61;100.00;97569.56;4163621;28;20669;-85
2023/08/27 05:44:35;;;;;;;4.13;3.83;;;;;;;18.62;100.00;97573.03;4162907;28;20657;-86
2023/08/27 05:46:40;;;;;;;6.00;5.00;;;;;;;18.64;100.00;97563.97;4170502;28;20650;-86
2023/08/27 05:48:43;;;;;;;4.53;4.13;;;;;;;18.66;100.00;97555.88;4151155;28;20639;-87
2023/08/27 05:50:46;;;;;;;5.60;4.47;;;;;;;18.68;100.00;97551.22;4168008;28;20657;-86
2023/08/27 05:52:50;;;;;;;4.87;4.40;;;;;;;18.69;100.00;97566.91;4169003;28;20642;-86
2023/08/27 05:54:53;;;;;;;5.20;4.40;;;;;;;18.71;100.00;97586.06;4162724;28;20617;-86
2023/08/27 05:56:57;;;;;;;4.97;4.47;;;;;;;18.72;100.00;97582.44;4153781;28;20697;-87
2023/08/27 05:59:00;;;;;;;4.70;4.07;;;;;;;18.72;100.00;97582.44;4172691;28;20630;-86
2023/08/27 06:01:03;;;;;;;4.70;4.20;;;;;;;18.73;100.00;97584.06;4164211;28;21173;-86
2023/08/27 06:03:08;;;;;;;4.70;4.27;;;;;;;18.74;100.00;97583.09;4174839;28;20642;-86
2023/08/27 06:05:11;;;;;;;4.93;4.43;;;;;;;18.77;100.00;97590.69;4176132;28;20665;-86
2023/08/27 06:07:13;;;;;;;5.20;4.20;;;;;;;18.78;100.00;97591.50;4159651;28;20719;-86
2023/08/27 06:09:17;;;;;;;5.17;4.30;;;;;;;18.78;100.00;97589.69;4156538;28;21216;-86
2023/08/27 06:11:20;;;;;;;4.90;4.47;;;;;;;18.79;100.00;97593.97;4170579;28;20689;-86
2023/08/27 06:13:23;;;;;;;4.80;4.30;;;;;;;18.81;100.00;97591.16;4157933;28;20623;-86
2023/08/27 06:15:28;;;;;;;5.47;4.97;;;;;;;18.79;100.00;97593.97;4162412;28;20635;-86
2023/08/27 06:17:31;;;;;;;4.90;4.40;;;;;;;18.82;100.00;97598.09;4162229;28;20988;-86
2023/08/27 06:19:35;;;;;;;5.87;5.00;;;;;;;18.85;100.00;97601.22;4161888;28;20631;-86
2023/08/27 06:21:50;;;;;;;4.90;4.50;;;;;;;18.87;100.00;97588.69;4177215;28;20634;-87
2023/08/27 06:23:54;;;;;;;5.70;4.53;;;;;;;18.90;100.00;97583.88;4170778;28;20629;-86
2023/08/27 06:26:03;;;;;;;5.10;4.60;;;;;;;18.93;100.00;97577.44;4154062;28;20630;-87
2023/08/27 06:28:07;;;;;;;5.10;4.60;;;;;;;18.95;100.00;97583.38;4170923;28;20981;-86
2023/08/27 06:30:11;;;;;;;5.60;4.67;;;;;;;18.97;100.00;97576.94;4156083;28;20651;-86
2023/08/27 06:32:15;;;;;;;5.00;4.50;;;;;;;18.97;100.00;97565.53;4157400;28;20693;-86
2023/08/27 06:34:19;;;;;;;4.70;4.30;;;;;;;18.98;100.00;97562.72;4152949;28;20640;-86
2023/08/27 06:36:23;;;;;;;5.20;4.50;;;;;;;19.02;100.00;97561.44;4173677;28;20626;-86
2023/08/27 06:38:27;;;;;;;5.10;4.53;;;;;;;19.01;100.00;97572.13;4171213;28;20623;-86
2023/08/27 06:40:31;;;;;;;5.33;4.27;;;;;;;19.00;100.00;97568.69;4154659;28;20661;-87
2023/08/27 06:42:34;;;;;;;5.90;4.77;;;;;;;19.00;100.00;97568.69;4165588;28;20740;-86
2023/08/27 06:44:38;;;;;;;4.73;4.27;;;;;;;19.03;100.00;97578.09;4173641;28;20649;-87
2023/08/27 06:46:41;;;;;;;5.33;4.47;;;;;;;19.05;100.00;97569.03;4161738;28;20642;-86
2023/08/27 06:48:44;;;;;;;5.97;5.10;;;;;;;19.10;100.00;97571.16;4184858;28;20955;-86
2023/08/27 06:50:48;;;;;;;5.40;4.90;;;;;;;19.10;100.00;97571.16;4169572;28;20675;-86
2023/08/27 06:52:53;;;;;;;6.00;4.70;;;;;;;19.10;100.00;97561.41;4189778;28;21059;-86
2023/08/27 06:54:56;;;;;;;5.37;4.87;;;;;;;19.06;100.00;97573.31;4159145;28;20727;-86
2023/08/27 06:56:59;;;;;;;6.00;5.40;;;;;;;19.06;100.00;97583.91;4158270;28;20705;-86
2023/08/27 06:59:02;;;;;;;11.07;6.60;;;;;;;19.08;100.00;97595.13;4151652;28;20623;-86
2023/08/27 07:01:06;;;;;;;6.23;4.97;;;;;;;19.11;100.00;97601.88;4166882;28;20638;-86
2023/08/27 07:03:09;;;;;;;6.00;5.40;;;;;;;19.13;100.00;97591.97;4172471;28;20635;-86
2023/08/27 07:05:12;;;;;;;6.30;5.60;;;;;;;19.16;100.00;97602.22;4170575;28;20662;-86
2023/08/27 07:07:16;;;;;;;6.40;4.93;;;;;;;19.18;100.00;97605.50;4170170;28;21191;-86
2023/08/27 07:09:22;;;;;;;6.10;5.50;;;;;;;19.21;100.00;97605.16;4167806;28;21259;-86
2023/08/27 07:11:25;;;;;;;6.53;5.70;;;;;;;19.20;100.00;97599.06;4159588;28;20751;-86
2023/08/27 07:13:30;;;;;;;6.30;5.70;;;;;;;19.21;100.00;97603.34;4161472;28;20665;-87
2023/08/27 07:15:33;;;;;;;5.93;5.33;;;;;;;19.23;100.00;97609.31;4174407;28;20630;-86
2023/08/27 07:17:38;;;;;;;6.13;5.53;;;;;;;19.25;100.00;97611.78;4152273;28;20699;-86
2023/08/27 07:19:41;;;;;;;5.63;5.03;;;;;;;19.26;100.00;97598.38;4163402;28;20641;-86
2023/08/27 07:21:45;;;;;;;6.50;5.77;;;;;;;19.27;100.00;97600.00;4157834;28;20640;-86
2023/08/27 07:23:51;;;;;;;7.83;5.43;;;;;;;19.30;100.00;97607.59;4154755;28;20727;-86
2023/08/27 07:25:56;;;;;;;6.67;5.90;;;;;;;19.34;100.00;97608.13;4156192;28;21144;-87
2023/08/27 07:27:59;;;;;;;6.67;6.03;;;;;;;19.35;100.00;97600.00;4163263;28;20626;-86
2023/08/27 07:30:03;;;;;;;6.00;5.40;;;;;;;19.38;100.00;97578.50;4169934;28;20621;-86
2023/08/27 07:32:06;;;;;;;6.30;5.60;;;;;;;19.39;100.00;97582.78;4161151;28;20746;-86
2023/08/27 07:34:09;;;;;;;6.30;5.37;;;;;;;19.38;100.00;97576.69;4167394;28;20637;-86
2023/08/27 07:36:12;;;;;;;6.70;5.50;;;;;;;19.42;100.00;97583.28;4180321;28;21268;-86
2023/08/27 07:38:16;;;;;;;8.30;6.10;;;;;;;19.42;100.00;97590.38;4170369;28;20745;-86
2023/08/27 07:40:20;;;;;;;6.33;5.70;;;;;;;19.45;100.00;97582.09;4182906;28;20633;-86
2023/08/27 07:42:24;;;;;;;7.13;6.13;;;;;;;19.51;100.00;97571.66;4181923;28;20623;-86
2023/08/27 07:44:27;;;;;;;8.00;6.07;;;;;;;19.55;100.00;97556.25;4159999;28;20633;-86
2023/08/27 07:46:31;;;;;;;6.00;5.10;;;;;;;19.61;100.00;97551.09;4178058;28;20659;-86
2023/08/27 07:48:34;;;;;;;7.57;6.13;;;;;;;19.66;100.00;97558.53;4167352;28;20638;-86
2023/08/27 07:50:39;;;;;;;6.30;5.07;;;;;;;19.74;100.00;97567.25;4160661;28;21046;-86
2023/08/27 07:52:43;;;;;;;7.43;5.30;;;;;;;19.81;100.00;97565.53;4164666;28;20667;-86
2023/08/27 07:54:46;;;;;;;5.87;5.23;;;;;;;19.87;100.00;97564.88;4183259;28;20665;-86
2023/08/27 07:56:49;;;;;;;7.70;5.00;;;;;;;19.90;100.00;97556.59;4174463;28;20729;-86
2023/08/27 07:58:55;;;;;;;5.70;4.70;;;;;;;19.93;100.00;97561.53;4182286;28;21019;-86
2023/08/27 08:00:59;;;;;;;5.40;4.90;;;;;;;19.96;100.00;97572.59;4165784;28;20730;-86
2023/08/27 08:03:03;;;;;;;5.50;4.97;;;;;;;19.97;100.00;97582.19;4162162;28;20635;-86
2023/08/27 08:05:07;;;;;;;4.93;4.43;;;;;;;20.00;100.00;97588.97;4176882;28;20665;-86
2023/08/27 08:07:10;;;;;;;4.73;4.23;;;;;;;20.06;100.00;97591.75;4166940;28;20712;-87
2023/08/27 08:09:13;;;;;;;4.20;3.80;;;;;;;20.10;100.00;97597.50;4165803;28;21180;-86
2023/08/27 08:11:17;;;;;;;4.67;3.90;;;;;;;20.15;100.00;97611.06;4157929;28;20645;-86
2023/08/27 08:13:19;;;;;;;4.50;3.90;;;;;;;20.19;100.00;97626.44;4150708;28;20685;-86
2023/08/27 08:15:23;;;;;;;3.80;3.40;;;;;;;20.23;100.00;97634.84;4168627;28;20632;-86
2023/08/27 08:17:26;;;;;;;5.00;3.60;;;;;;;20.22;100.00;97638.47;4164899;28;20644;-87
2023/08/27 08:19:48;;;;;;;3.80;3.40;;;;;;;20.21;100.00;97647.44;4174968;28;20627;-86
2023/08/27 08:21:51;;;;;;;3.43;3.10;;;;;;;20.23;100.00;97654.19;4172266;28;20622;-86
2023/08/27 08:23:54;;;;;;;4.03;3.13;;;;;;;20.22;100.00;97649.06;4172099;28;20650;-86
2023/08/27 08:25:57;;;;;;;3.47;3.17;;;;;;;20.17;100.00;97654.09;4164687;28;20662;-86
2023/08/27 08:28:01;;;;;;;5.10;3.60;;;;;;;20.18;100.00;97651.25;4175462;28;20678;-87
2023/08/27 08:30:05;;;;;;;4.50;3.70;;;;;;;20.24;100.00;97655.84;4160140;28;21191;-86
2023/08/27 08:32:10;;;;;;;6.37;4.50;;;;;;;20.26;100.00;97653.03;4177703;28;20661;-86
2023/08/27 08:34:12;;;;;;;5.87;4.60;;;;;;;20.31;100.00;97661.28;4162897;28;21181;-86
2023/08/27 08:36:15;;;;;;;6.60;4.30;;;;;;;20.35;100.00;97656.25;4177624;28;20636;-87
2023/08/27 08:38:17;;;;;;;4.80;4.30;;;;;;;20.43;100.00;97661.53;4175297;28;20883;-86
2023/08/27 08:40:20;;;;;;;5.13;4.20;;;;;;;20.51;100.00;97663.31;4173127;28;20661;-86
2023/08/27 08:42:29;;;;;;;5.30;3.80;;;;;;;20.58;100.00;97662.44;4158391;28;20632;-86
2023/08/27 08:44:38;;;;;;;6.80;3.90;;;;;;;20.63;100.00;97675.97;4176260;28;20729;-86
2023/08/27 08:46:43;;;;;;;8.90;6.70;;;;;;;20.68;100.00;97680.78;4151193;28;20639;-86
2023/08/27 08:48:50;;;;;;;12.23;8.00;;;;;;;20.68;100.00;97676.28;4176099;28;20978;-87
2023/08/27 08:50:54;;;;;;;12.50;8.70;;;;;;;20.70;100.00;97673.47;4162601;28;20631;-86
2023/08/27 08:52:58;;;;;;;11.63;7.63;;;;;;;20.73;100.00;97673.91;4170579;28;20750;-86
2023/08/27 08:55:01;;;;;;;5.50;4.57;;;;;;;20.72;100.00;97668.78;4171811;28;21181;-86
2023/08/27 08:57:05;;;;;;;4.90;4.40;;;;;;;20.68;100.00;97660.38;4171745;28;20631;-86
2023/08/27 08:59:07;;;;;;;4.37;3.97;;;;;;;20.70;100.00;97645.09;4154565;28;20660;-86
2023/08/27 09:01:11;;;;;;;5.70;3.80;;;;;;;20.76;100.00;97635.63;4170792;28;20660;-86
2023/08/27 09:03:15;;;;;;;4.67;3.73;;;;;;;20.79;100.00;97622.84;4175423;28;20630;-86
2023/08/27 09:05:20;;;;;;;3.90;3.53;;;;;;;20.79;100.00;97622.84;4161047;28;20679;-86
2023/08/27 09:07:23;;;;;;;3.83;3.43;;;;;;;20.76;100.00;97625.03;4173776;28;20663;-86
2023/08/27 09:09:27;;;;;;;5.10;4.60;;;;;;;20.77;100.00;97622.19;4170876;28;20627;-86
2023/08/27 09:11:34;;;;;;;4.10;3.70;;;;;;;20.76;100.00;97612.59;4156297;28;21057;-86
2023/08/27 09:13:38;;;;;;;5.43;4.07;;;;;;;20.78;100.00;97621.19;4162415;28;20667;-86
2023/08/27 09:15:41;;;;;;;4.30;3.50;;;;;;;20.85;100.00;97619.47;4168266;28;20640;-86
2023/08/27 09:17:44;;;;;;;4.60;3.33;;;;;;;20.94;100.00;97626.34;4161043;28;20641;-86
2023/08/27 09:19:47;;;;;;;4.07;3.20;;;;;;;21.01;100.00;97636.06;4151277;28;20641;-86
2023/08/27 09:21:52;;;;;;;5.20;3.30;;;;;;;21.00;100.00;97630.94;4178440;28;20713;-86
2023/08/27 09:23:55;;;;;;;3.63;3.33;;;;;;;20.97;100.00;97626.84;4161285;28;20626;-86
2023/08/27 09:25:59;;;;;;;4.20;3.37;;;;;;;20.94;100.00;97621.88;4160838;28;21259;-86
2023/08/27 09:28:03;;;;;;;4.10;3.70;;;;;;;20.99;100.00;97626.66;4176219;28;20628;-86
2023/08/27 09:30:07;;;;;;;4.80;3.57;;;;;;;20.98;100.00;97620.50;4166574;28;20709;-86
2023/08/27 09:32:20;;;;;;;4.77;3.77;;;;;;;20.99;100.00;97632.78;4163085;28;20725;-86
2023/08/27 09:34:23;;;;;;;4.20;3.77;;;;;;;21.02;100.00;97642.22;4174029;28;20640;-86
2023/08/27 09:36:26;;;;;;;4.10;3.70;;;;;;;21.05;100.00;97636.50;4161975;28;21241;-86